METAR Data
IDs: Format: Raw Decoded Include TAF

Data at: 2237 UTC 02 Aug 2021

LTDA 022150Z 23016KT CAVOK 28/22 Q1003 NOSIG